sensor_id;sensor_type;location;lat;lon;timestamp;P1;durP1;ratioP1;P2;durP2;ratioP2
10387;SDS011;5240;51.128;4.566;2023-02-26T00:01:28;10.48;;;3.67;;
10387;SDS011;5240;51.128;4.566;2023-02-26T00:03:57;13.02;;;3.78;;
10387;SDS011;5240;51.128;4.566;2023-02-26T00:06:25;13.00;;;4.10;;
10387;SDS011;5240;51.128;4.566;2023-02-26T00:08:53;10.40;;;3.63;;
10387;SDS011;5240;51.128;4.566;2023-02-26T00:11:21;13.40;;;4.38;;
10387;SDS011;5240;51.128;4.566;2023-02-26T00:13:50;11.40;;;4.13;;
10387;SDS011;5240;51.128;4.566;2023-02-26T00:16:20;6.13;;;3.60;;
10387;SDS011;5240;51.128;4.566;2023-02-26T00:18:52;7.55;;;3.22;;
10387;SDS011;5240;51.128;4.566;2023-02-26T00:21:20;13.57;;;4.00;;
10387;SDS011;5240;51.128;4.566;2023-02-26T00:23:48;7.18;;;3.90;;
10387;SDS011;5240;51.128;4.566;2023-02-26T00:26:16;14.95;;;4.07;;
10387;SDS011;5240;51.128;4.566;2023-02-26T00:28:43;15.38;;;3.65;;
10387;SDS011;5240;51.128;4.566;2023-02-26T00:31:12;12.05;;;3.80;;
10387;SDS011;5240;51.128;4.566;2023-02-26T00:33:41;17.23;;;4.05;;
10387;SDS011;5240;51.128;4.566;2023-02-26T00:36:12;8.75;;;3.40;;
10387;SDS011;5240;51.128;4.566;2023-02-26T00:38:47;11.05;;;4.15;;
10387;SDS011;5240;51.128;4.566;2023-02-26T00:41:22;9.38;;;3.22;;
10387;SDS011;5240;51.128;4.566;2023-02-26T00:43:49;10.48;;;3.72;;
10387;SDS011;5240;51.128;4.566;2023-02-26T00:46:20;9.85;;;3.50;;
10387;SDS011;5240;51.128;4.566;2023-02-26T00:48:58;8.57;;;3.80;;
10387;SDS011;5240;51.128;4.566;2023-02-26T00:51:35;9.25;;;3.42;;
10387;SDS011;5240;51.128;4.566;2023-02-26T00:54:11;12.85;;;3.88;;
10387;SDS011;5240;51.128;4.566;2023-02-26T00:56:40;9.35;;;3.70;;
10387;SDS011;5240;51.128;4.566;2023-02-26T00:59:07;6.78;;;3.67;;
10387;SDS011;5240;51.128;4.566;2023-02-26T01:01:36;8.05;;;3.25;;
10387;SDS011;5240;51.128;4.566;2023-02-26T01:04:03;8.93;;;3.70;;
10387;SDS011;5240;51.128;4.566;2023-02-26T01:06:32;10.32;;;3.50;;
10387;SDS011;5240;51.128;4.566;2023-02-26T01:09:01;8.95;;;3.97;;
10387;SDS011;5240;51.128;4.566;2023-02-26T01:11:31;10.27;;;3.92;;
10387;SDS011;5240;51.128;4.566;2023-02-26T01:14:01;9.10;;;3.40;;
10387;SDS011;5240;51.128;4.566;2023-02-26T01:16:29;8.55;;;3.38;;
10387;SDS011;5240;51.128;4.566;2023-02-26T01:19:04;11.80;;;3.70;;
10387;SDS011;5240;51.128;4.566;2023-02-26T01:21:40;4.90;;;3.15;;
10387;SDS011;5240;51.128;4.566;2023-02-26T01:24:15;9.98;;;3.60;;
10387;SDS011;5240;51.128;4.566;2023-02-26T01:26:44;8.32;;;3.40;;
10387;SDS011;5240;51.128;4.566;2023-02-26T01:29:14;12.15;;;3.72;;
10387;SDS011;5240;51.128;4.566;2023-02-26T01:31:42;8.88;;;3.30;;
10387;SDS011;5240;51.128;4.566;2023-02-26T01:34:17;6.55;;;3.35;;
10387;SDS011;5240;51.128;4.566;2023-02-26T01:36:49;7.63;;;3.28;;
10387;SDS011;5240;51.128;4.566;2023-02-26T01:39:22;6.43;;;3.00;;
10387;SDS011;5240;51.128;4.566;2023-02-26T01:41:55;10.45;;;3.22;;
10387;SDS011;5240;51.128;4.566;2023-02-26T01:44:26;12.52;;;3.58;;
10387;SDS011;5240;51.128;4.566;2023-02-26T01:47:01;9.23;;;3.28;;
10387;SDS011;5240;51.128;4.566;2023-02-26T01:49:36;10.55;;;3.42;;
10387;SDS011;5240;51.128;4.566;2023-02-26T01:52:04;9.40;;;3.25;;
10387;SDS011;5240;51.128;4.566;2023-02-26T01:54:33;6.57;;;2.72;;
10387;SDS011;5240;51.128;4.566;2023-02-26T01:57:03;7.35;;;2.92;;
10387;SDS011;5240;51.128;4.566;2023-02-26T01:59:35;10.73;;;3.03;;
10387;SDS011;5240;51.128;4.566;2023-02-26T02:02:05;9.38;;;3.78;;
10387;SDS011;5240;51.128;4.566;2023-02-26T02:04:36;9.13;;;3.20;;
10387;SDS011;5240;51.128;4.566;2023-02-26T02:07:05;9.43;;;3.15;;
10387;SDS011;5240;51.128;4.566;2023-02-26T02:09:32;7.05;;;2.85;;
10387;SDS011;5240;51.128;4.566;2023-02-26T02:12:07;10.65;;;3.15;;
10387;SDS011;5240;51.128;4.566;2023-02-26T02:14:48;9.23;;;3.35;;
10387;SDS011;5240;51.128;4.566;2023-02-26T02:17:27;9.30;;;3.60;;
10387;SDS011;5240;51.128;4.566;2023-02-26T02:20:15;9.75;;;2.95;;
10387;SDS011;5240;51.128;4.566;2023-02-26T02:23:09;5.43;;;2.67;;
10387;SDS011;5240;51.128;4.566;2023-02-26T02:26:03;11.85;;;3.13;;
10387;SDS011;5240;51.128;4.566;2023-02-26T02:29:01;5.90;;;3.03;;
10387;SDS011;5240;51.128;4.566;2023-02-26T02:31:51;6.80;;;2.92;;
10387;SDS011;5240;51.128;4.566;2023-02-26T02:34:24;9.82;;;2.97;;
10387;SDS011;5240;51.128;4.566;2023-02-26T02:36:55;7.32;;;2.83;;
10387;SDS011;5240;51.128;4.566;2023-02-26T02:39:25;8.90;;;3.25;;
10387;SDS011;5240;51.128;4.566;2023-02-26T02:41:55;6.28;;;2.30;;
10387;SDS011;5240;51.128;4.566;2023-02-26T02:44:26;6.15;;;2.78;;
10387;SDS011;5240;51.128;4.566;2023-02-26T02:46:57;7.70;;;2.50;;
10387;SDS011;5240;51.128;4.566;2023-02-26T02:49:26;6.10;;;2.92;;
10387;SDS011;5240;51.128;4.566;2023-02-26T02:51:59;6.43;;;2.53;;
10387;SDS011;5240;51.128;4.566;2023-02-26T02:54:32;8.57;;;2.85;;
10387;SDS011;5240;51.128;4.566;2023-02-26T02:57:03;7.90;;;2.88;;
10387;SDS011;5240;51.128;4.566;2023-02-26T02:59:38;10.43;;;2.75;;
10387;SDS011;5240;51.128;4.566;2023-02-26T03:02:10;6.68;;;2.95;;
10387;SDS011;5240;51.128;4.566;2023-02-26T03:04:41;9.60;;;2.85;;
10387;SDS011;5240;51.128;4.566;2023-02-26T03:07:09;9.30;;;2.95;;
10387;SDS011;5240;51.128;4.566;2023-02-26T03:09:36;10.45;;;2.78;;
10387;SDS011;5240;51.128;4.566;2023-02-26T03:12:03;6.70;;;2.53;;
10387;SDS011;5240;51.128;4.566;2023-02-26T03:14:31;9.85;;;2.75;;
10387;SDS011;5240;51.128;4.566;2023-02-26T03:17:04;7.47;;;2.45;;
10387;SDS011;5240;51.128;4.566;2023-02-26T03:19:55;6.90;;;2.67;;
10387;SDS011;5240;51.128;4.566;2023-02-26T03:22:33;7.82;;;2.53;;
10387;SDS011;5240;51.128;4.566;2023-02-26T03:25:06;7.40;;;2.45;;
10387;SDS011;5240;51.128;4.566;2023-02-26T03:27:37;6.35;;;2.30;;
10387;SDS011;5240;51.128;4.566;2023-02-26T03:30:11;7.38;;;2.20;;
10387;SDS011;5240;51.128;4.566;2023-02-26T03:32:44;8.52;;;2.30;;
10387;SDS011;5240;51.128;4.566;2023-02-26T03:35:17;4.68;;;1.80;;
10387;SDS011;5240;51.128;4.566;2023-02-26T03:37:51;6.80;;;2.00;;
10387;SDS011;5240;51.128;4.566;2023-02-26T03:40:23;6.80;;;2.15;;
10387;SDS011;5240;51.128;4.566;2023-02-26T03:42:56;4.10;;;1.73;;
10387;SDS011;5240;51.128;4.566;2023-02-26T03:45:30;5.30;;;2.42;;
10387;SDS011;5240;51.128;4.566;2023-02-26T03:48:01;5.25;;;2.13;;
10387;SDS011;5240;51.128;4.566;2023-02-26T03:50:31;5.35;;;2.03;;
10387;SDS011;5240;51.128;4.566;2023-02-26T03:53:02;3.60;;;1.90;;
10387;SDS011;5240;51.128;4.566;2023-02-26T03:55:34;4.28;;;2.00;;
10387;SDS011;5240;51.128;4.566;2023-02-26T03:58:04;6.28;;;1.95;;
10387;SDS011;5240;51.128;4.566;2023-02-26T04:00:31;5.95;;;2.47;;
10387;SDS011;5240;51.128;4.566;2023-02-26T04:03:06;7.38;;;1.90;;
10387;SDS011;5240;51.128;4.566;2023-02-26T04:05:37;5.38;;;2.05;;
10387;SDS011;5240;51.128;4.566;2023-02-26T04:08:08;6.05;;;1.92;;
10387;SDS011;5240;51.128;4.566;2023-02-26T04:10:36;4.70;;;1.85;;
10387;SDS011;5240;51.128;4.566;2023-02-26T04:13:07;4.35;;;1.63;;
10387;SDS011;5240;51.128;4.566;2023-02-26T04:15:34;8.05;;;1.77;;
10387;SDS011;5240;51.128;4.566;2023-02-26T04:18:01;5.28;;;1.92;;
10387;SDS011;5240;51.128;4.566;2023-02-26T04:20:29;4.63;;;2.30;;
10387;SDS011;5240;51.128;4.566;2023-02-26T04:22:56;3.83;;;1.75;;
10387;SDS011;5240;51.128;4.566;2023-02-26T04:25:23;6.93;;;2.00;;
10387;SDS011;5240;51.128;4.566;2023-02-26T04:27:50;5.68;;;1.70;;
10387;SDS011;5240;51.128;4.566;2023-02-26T04:30:17;4.82;;;1.85;;
10387;SDS011;5240;51.128;4.566;2023-02-26T04:32:44;7.75;;;2.22;;
10387;SDS011;5240;51.128;4.566;2023-02-26T04:35:11;5.93;;;1.80;;
10387;SDS011;5240;51.128;4.566;2023-02-26T04:37:40;3.97;;;1.52;;
10387;SDS011;5240;51.128;4.566;2023-02-26T04:40:08;5.53;;;1.80;;
10387;SDS011;5240;51.128;4.566;2023-02-26T04:42:36;5.97;;;2.03;;
10387;SDS011;5240;51.128;4.566;2023-02-26T04:45:03;9.07;;;2.42;;
10387;SDS011;5240;51.128;4.566;2023-02-26T04:47:30;4.03;;;1.90;;
10387;SDS011;5240;51.128;4.566;2023-02-26T04:49:57;4.93;;;1.92;;
10387;SDS011;5240;51.128;4.566;2023-02-26T04:52:25;5.45;;;1.50;;
10387;SDS011;5240;51.128;4.566;2023-02-26T04:54:53;5.80;;;1.67;;
10387;SDS011;5240;51.128;4.566;2023-02-26T04:57:20;6.78;;;1.77;;
10387;SDS011;5240;51.128;4.566;2023-02-26T04:59:47;9.15;;;2.00;;
10387;SDS011;5240;51.128;4.566;2023-02-26T05:02:14;3.78;;;1.73;;
10387;SDS011;5240;51.128;4.566;2023-02-26T05:04:41;6.45;;;1.83;;
10387;SDS011;5240;51.128;4.566;2023-02-26T05:07:08;9.05;;;1.98;;
10387;SDS011;5240;51.128;4.566;2023-02-26T05:09:35;5.07;;;1.70;;
10387;SDS011;5240;51.128;4.566;2023-02-26T05:12:04;7.65;;;1.88;;
10387;SDS011;5240;51.128;4.566;2023-02-26T05:14:31;9.52;;;1.67;;
10387;SDS011;5240;51.128;4.566;2023-02-26T05:16:58;6.68;;;1.67;;
10387;SDS011;5240;51.128;4.566;2023-02-26T05:19:25;4.35;;;1.58;;
10387;SDS011;5240;51.128;4.566;2023-02-26T05:21:52;6.15;;;1.88;;
10387;SDS011;5240;51.128;4.566;2023-02-26T05:24:19;8.80;;;1.80;;
10387;SDS011;5240;51.128;4.566;2023-02-26T05:26:46;5.82;;;1.75;;
10387;SDS011;5240;51.128;4.566;2023-02-26T05:29:15;7.07;;;1.85;;
10387;SDS011;5240;51.128;4.566;2023-02-26T05:31:42;8.07;;;2.17;;
10387;SDS011;5240;51.128;4.566;2023-02-26T05:34:09;7.97;;;2.05;;
10387;SDS011;5240;51.128;4.566;2023-02-26T05:36:36;4.25;;;1.48;;
10387;SDS011;5240;51.128;4.566;2023-02-26T05:39:03;6.03;;;2.03;;
10387;SDS011;5240;51.128;4.566;2023-02-26T05:41:30;6.50;;;1.93;;
10387;SDS011;5240;51.128;4.566;2023-02-26T05:43:57;6.90;;;1.98;;
10387;SDS011;5240;51.128;4.566;2023-02-26T05:46:25;2.08;;;1.27;;
10387;SDS011;5240;51.128;4.566;2023-02-26T05:48:52;3.47;;;1.70;;
10387;SDS011;5240;51.128;4.566;2023-02-26T05:51:19;8.02;;;2.10;;
10387;SDS011;5240;51.128;4.566;2023-02-26T05:53:46;7.40;;;2.28;;
10387;SDS011;5240;51.128;4.566;2023-02-26T05:56:13;9.43;;;1.73;;
10387;SDS011;5240;51.128;4.566;2023-02-26T05:58:40;5.37;;;2.00;;
10387;SDS011;5240;51.128;4.566;2023-02-26T06:01:07;7.33;;;1.60;;
10387;SDS011;5240;51.128;4.566;2023-02-26T06:03:36;4.53;;;1.67;;
10387;SDS011;5240;51.128;4.566;2023-02-26T06:06:08;4.68;;;1.65;;
10387;SDS011;5240;51.128;4.566;2023-02-26T06:08:35;8.40;;;2.10;;
10387;SDS011;5240;51.128;4.566;2023-02-26T06:11:02;5.80;;;1.80;;
10387;SDS011;5240;51.128;4.566;2023-02-26T06:13:30;4.25;;;1.60;;
10387;SDS011;5240;51.128;4.566;2023-02-26T06:15:57;6.75;;;1.88;;
10387;SDS011;5240;51.128;4.566;2023-02-26T06:18:24;3.07;;;1.60;;
10387;SDS011;5240;51.128;4.566;2023-02-26T06:20:52;4.53;;;1.70;;
10387;SDS011;5240;51.128;4.566;2023-02-26T06:23:19;7.47;;;1.97;;
10387;SDS011;5240;51.128;4.566;2023-02-26T06:25:46;6.63;;;1.83;;
10387;SDS011;5240;51.128;4.566;2023-02-26T06:28:15;5.17;;;1.90;;
10387;SDS011;5240;51.128;4.566;2023-02-26T06:30:42;4.40;;;1.67;;
10387;SDS011;5240;51.128;4.566;2023-02-26T06:33:09;4.80;;;1.60;;
10387;SDS011;5240;51.128;4.566;2023-02-26T06:35:37;7.97;;;1.70;;
10387;SDS011;5240;51.128;4.566;2023-02-26T06:38:05;10.52;;;1.83;;
10387;SDS011;5240;51.128;4.566;2023-02-26T06:40:32;8.33;;;1.63;;
10387;SDS011;5240;51.128;4.566;2023-02-26T06:43:00;3.53;;;1.60;;
10387;SDS011;5240;51.128;4.566;2023-02-26T06:45:27;8.27;;;1.92;;
10387;SDS011;5240;51.128;4.566;2023-02-26T06:47:54;5.13;;;1.67;;
10387;SDS011;5240;51.128;4.566;2023-02-26T06:50:21;4.50;;;1.75;;
10387;SDS011;5240;51.128;4.566;2023-02-26T06:52:48;6.40;;;1.43;;
10387;SDS011;5240;51.128;4.566;2023-02-26T06:55:16;4.80;;;1.47;;
10387;SDS011;5240;51.128;4.566;2023-02-26T06:57:45;15.90;;;2.20;;
10387;SDS011;5240;51.128;4.566;2023-02-26T07:00:13;4.97;;;1.70;;
10387;SDS011;5240;51.128;4.566;2023-02-26T07:02:40;5.30;;;1.63;;
10387;SDS011;5240;51.128;4.566;2023-02-26T07:05:08;5.33;;;1.63;;
10387;SDS011;5240;51.128;4.566;2023-02-26T07:07:35;5.10;;;1.33;;
10387;SDS011;5240;51.128;4.566;2023-02-26T07:10:02;4.73;;;1.20;;
10387;SDS011;5240;51.128;4.566;2023-02-26T07:12:31;4.40;;;1.50;;
10387;SDS011;5240;51.128;4.566;2023-02-26T07:14:58;6.53;;;1.73;;
10387;SDS011;5240;51.128;4.566;2023-02-26T07:17:25;6.83;;;1.70;;
10387;SDS011;5240;51.128;4.566;2023-02-26T07:19:52;4.93;;;1.60;;
10387;SDS011;5240;51.128;4.566;2023-02-26T07:22:19;7.80;;;1.80;;
10387;SDS011;5240;51.128;4.566;2023-02-26T07:24:46;6.60;;;1.67;;
10387;SDS011;5240;51.128;4.566;2023-02-26T07:27:13;6.53;;;1.80;;
10387;SDS011;5240;51.128;4.566;2023-02-26T07:29:42;3.10;;;1.50;;
10387;SDS011;5240;51.128;4.566;2023-02-26T07:32:09;3.90;;;1.80;;
10387;SDS011;5240;51.128;4.566;2023-02-26T07:34:36;6.63;;;2.00;;
10387;SDS011;5240;51.128;4.566;2023-02-26T07:37:03;4.97;;;1.50;;
10387;SDS011;5240;51.128;4.566;2023-02-26T07:39:30;6.13;;;1.80;;
10387;SDS011;5240;51.128;4.566;2023-02-26T07:41:57;5.70;;;1.60;;
10387;SDS011;5240;51.128;4.566;2023-02-26T07:44:24;3.13;;;1.60;;
10387;SDS011;5240;51.128;4.566;2023-02-26T07:46:52;5.20;;;1.42;;
10387;SDS011;5240;51.128;4.566;2023-02-26T07:49:19;4.05;;;1.45;;
10387;SDS011;5240;51.128;4.566;2023-02-26T07:51:47;5.47;;;1.40;;
10387;SDS011;5240;51.128;4.566;2023-02-26T07:54:14;5.30;;;1.83;;
10387;SDS011;5240;51.128;4.566;2023-02-26T07:56:41;7.72;;;1.63;;
10387;SDS011;5240;51.128;4.566;2023-02-26T07:59:09;5.30;;;1.75;;
10387;SDS011;5240;51.128;4.566;2023-02-26T08:01:36;4.70;;;1.90;;
10387;SDS011;5240;51.128;4.566;2023-02-26T08:04:05;4.25;;;1.67;;
10387;SDS011;5240;51.128;4.566;2023-02-26T08:06:32;4.78;;;1.98;;
10387;SDS011;5240;51.128;4.566;2023-02-26T08:08:59;5.40;;;1.80;;
10387;SDS011;5240;51.128;4.566;2023-02-26T08:11:26;4.15;;;2.00;;
10387;SDS011;5240;51.128;4.566;2023-02-26T08:13:53;7.20;;;1.90;;
10387;SDS011;5240;51.128;4.566;2023-02-26T08:16:21;4.93;;;1.85;;
10387;SDS011;5240;51.128;4.566;2023-02-26T08:18:48;4.18;;;1.50;;
10387;SDS011;5240;51.128;4.566;2023-02-26T08:21:16;4.97;;;1.70;;
10387;SDS011;5240;51.128;4.566;2023-02-26T08:23:43;6.00;;;1.42;;
10387;SDS011;5240;51.128;4.566;2023-02-26T08:26:10;3.30;;;1.55;;
10387;SDS011;5240;51.128;4.566;2023-02-26T08:28:38;3.25;;;1.30;;
10387;SDS011;5240;51.128;4.566;2023-02-26T08:31:05;4.28;;;2.08;;
10387;SDS011;5240;51.128;4.566;2023-02-26T08:33:32;3.90;;;1.60;;
10387;SDS011;5240;51.128;4.566;2023-02-26T08:35:59;3.97;;;1.60;;
10387;SDS011;5240;51.128;4.566;2023-02-26T08:38:28;4.45;;;1.60;;
10387;SDS011;5240;51.128;4.566;2023-02-26T08:40:55;2.72;;;1.55;;
10387;SDS011;5240;51.128;4.566;2023-02-26T08:43:22;4.00;;;1.55;;
10387;SDS011;5240;51.128;4.566;2023-02-26T08:45:51;3.83;;;1.52;;
10387;SDS011;5240;51.128;4.566;2023-02-26T08:48:18;3.00;;;1.33;;
10387;SDS011;5240;51.128;4.566;2023-02-26T08:50:46;5.32;;;1.45;;
10387;SDS011;5240;51.128;4.566;2023-02-26T08:53:13;3.92;;;1.60;;
10387;SDS011;5240;51.128;4.566;2023-02-26T08:55:42;2.67;;;1.33;;
10387;SDS011;5240;51.128;4.566;2023-02-26T08:58:12;6.60;;;1.90;;
10387;SDS011;5240;51.128;4.566;2023-02-26T09:00:39;4.13;;;1.20;;
10387;SDS011;5240;51.128;4.566;2023-02-26T09:03:06;5.75;;;1.60;;
10387;SDS011;5240;51.128;4.566;2023-02-26T09:05:33;3.25;;;1.27;;
10387;SDS011;5240;51.128;4.566;2023-02-26T09:08:00;9.52;;;1.60;;
10387;SDS011;5240;51.128;4.566;2023-02-26T09:10:28;2.88;;;1.40;;
10387;SDS011;5240;51.128;4.566;2023-02-26T09:12:57;4.88;;;1.60;;
10387;SDS011;5240;51.128;4.566;2023-02-26T09:15:24;4.82;;;1.80;;
10387;SDS011;5240;51.128;4.566;2023-02-26T09:17:51;4.00;;;1.60;;
10387;SDS011;5240;51.128;4.566;2023-02-26T09:20:18;4.47;;;1.60;;
10387;SDS011;5240;51.128;4.566;2023-02-26T09:22:45;5.80;;;1.48;;
10387;SDS011;5240;51.128;4.566;2023-02-26T09:25:12;5.78;;;3.80;;
10387;SDS011;5240;51.128;4.566;2023-02-26T09:27:40;5.50;;;1.38;;
10387;SDS011;5240;51.128;4.566;2023-02-26T09:30:10;3.42;;;1.55;;
10387;SDS011;5240;51.128;4.566;2023-02-26T09:32:37;17.88;;;9.80;;
10387;SDS011;5240;51.128;4.566;2023-02-26T09:35:04;3.45;;;1.63;;
10387;SDS011;5240;51.128;4.566;2023-02-26T09:37:32;3.22;;;1.58;;
10387;SDS011;5240;51.128;4.566;2023-02-26T09:39:59;1.98;;;1.30;;
10387;SDS011;5240;51.128;4.566;2023-02-26T09:42:36;5.13;;;1.30;;
10387;SDS011;5240;51.128;4.566;2023-02-26T09:45:16;2.30;;;1.40;;
10387;SDS011;5240;51.128;4.566;2023-02-26T09:47:49;4.63;;;1.52;;
10387;SDS011;5240;51.128;4.566;2023-02-26T09:50:19;3.28;;;1.35;;
10387;SDS011;5240;51.128;4.566;2023-02-26T09:52:50;1.67;;;1.20;;
10387;SDS011;5240;51.128;4.566;2023-02-26T09:55:23;4.30;;;1.40;;
10387;SDS011;5240;51.128;4.566;2023-02-26T09:57:55;2.00;;;1.00;;
10387;SDS011;5240;51.128;4.566;2023-02-26T10:00:28;2.30;;;1.38;;
10387;SDS011;5240;51.128;4.566;2023-02-26T10:03:04;2.13;;;1.20;;
10387;SDS011;5240;51.128;4.566;2023-02-26T10:05:44;2.13;;;1.55;;
10387;SDS011;5240;51.128;4.566;2023-02-26T10:08:25;2.33;;;1.20;;
10387;SDS011;5240;51.128;4.566;2023-02-26T10:11:00;2.50;;;1.33;;
10387;SDS011;5240;51.128;4.566;2023-02-26T10:13:33;3.08;;;1.15;;
10387;SDS011;5240;51.128;4.566;2023-02-26T10:16:06;2.92;;;1.35;;
10387;SDS011;5240;51.128;4.566;2023-02-26T10:18:37;3.10;;;1.38;;
10387;SDS011;5240;51.128;4.566;2023-02-26T10:21:10;3.60;;;1.38;;
10387;SDS011;5240;51.128;4.566;2023-02-26T10:23:43;2.80;;;1.20;;
10387;SDS011;5240;51.128;4.566;2023-02-26T10:26:16;2.50;;;1.27;;
10387;SDS011;5240;51.128;4.566;2023-02-26T10:28:49;7.13;;;1.40;;
10387;SDS011;5240;51.128;4.566;2023-02-26T10:31:25;2.40;;;1.10;;
10387;SDS011;5240;51.128;4.566;2023-02-26T10:34:01;3.90;;;1.20;;
10387;SDS011;5240;51.128;4.566;2023-02-26T10:36:38;8.43;;;1.52;;
10387;SDS011;5240;51.128;4.566;2023-02-26T10:39:19;5.47;;;2.50;;
10387;SDS011;5240;51.128;4.566;2023-02-26T10:41:52;1.23;;;1.00;;
10387;SDS011;5240;51.128;4.566;2023-02-26T10:44:21;2.13;;;1.02;;
10387;SDS011;5240;51.128;4.566;2023-02-26T10:46:56;3.75;;;1.10;;
10387;SDS011;5240;51.128;4.566;2023-02-26T10:49:44;4.25;;;1.10;;
10387;SDS011;5240;51.128;4.566;2023-02-26T10:52:20;2.55;;;1.05;;
10387;SDS011;5240;51.128;4.566;2023-02-26T10:54:59;4.30;;;1.38;;
10387;SDS011;5240;51.128;4.566;2023-02-26T10:57:50;4.25;;;1.27;;
10387;SDS011;5240;51.128;4.566;2023-02-26T11:00:21;1.48;;;0.90;;
10387;SDS011;5240;51.128;4.566;2023-02-26T11:02:51;1.85;;;0.82;;
10387;SDS011;5240;51.128;4.566;2023-02-26T11:05:21;8.77;;;1.52;;
10387;SDS011;5240;51.128;4.566;2023-02-26T11:07:50;2.55;;;1.20;;
10387;SDS011;5240;51.128;4.566;2023-02-26T11:10:22;3.05;;;1.40;;
10387;SDS011;5240;51.128;4.566;2023-02-26T11:12:51;1.38;;;0.90;;
10387;SDS011;5240;51.128;4.566;2023-02-26T11:15:19;2.97;;;1.30;;
10387;SDS011;5240;51.128;4.566;2023-02-26T11:17:49;4.75;;;0.88;;
10387;SDS011;5240;51.128;4.566;2023-02-26T11:20:25;2.30;;;1.15;;
10387;SDS011;5240;51.128;4.566;2023-02-26T11:22:59;1.52;;;1.00;;
10387;SDS011;5240;51.128;4.566;2023-02-26T11:25:29;1.63;;;0.90;;
10387;SDS011;5240;51.128;4.566;2023-02-26T11:28:00;4.82;;;1.10;;
10387;SDS011;5240;51.128;4.566;2023-02-26T11:30:29;2.00;;;1.10;;
10387;SDS011;5240;51.128;4.566;2023-02-26T11:33:05;2.85;;;1.10;;
10387;SDS011;5240;51.128;4.566;2023-02-26T11:35:41;2.78;;;1.00;;
10387;SDS011;5240;51.128;4.566;2023-02-26T11:38:13;3.80;;;1.23;;
10387;SDS011;5240;51.128;4.566;2023-02-26T11:40:45;1.48;;;1.20;;
10387;SDS011;5240;51.128;4.566;2023-02-26T11:43:14;2.78;;;1.20;;
10387;SDS011;5240;51.128;4.566;2023-02-26T11:45:45;2.53;;;1.33;;
10387;SDS011;5240;51.128;4.566;2023-02-26T11:48:17;3.88;;;1.42;;
10387;SDS011;5240;51.128;4.566;2023-02-26T11:50:48;1.73;;;1.35;;
10387;SDS011;5240;51.128;4.566;2023-02-26T11:53:23;1.58;;;1.08;;
10387;SDS011;5240;51.128;4.566;2023-02-26T11:55:52;4.18;;;1.50;;
10387;SDS011;5240;51.128;4.566;2023-02-26T11:58:27;4.70;;;1.40;;
10387;SDS011;5240;51.128;4.566;2023-02-26T12:00:57;4.00;;;1.08;;
10387;SDS011;5240;51.128;4.566;2023-02-26T12:03:30;1.95;;;1.05;;
10387;SDS011;5240;51.128;4.566;2023-02-26T12:05:58;1.35;;;0.95;;
10387;SDS011;5240;51.128;4.566;2023-02-26T12:08:29;3.05;;;1.20;;
10387;SDS011;5240;51.128;4.566;2023-02-26T12:14:15;2.13;;;1.13;;
10387;SDS011;5240;51.128;4.566;2023-02-26T12:17:04;2.63;;;1.20;;
10387;SDS011;5240;51.128;4.566;2023-02-26T12:19:42;3.80;;;1.50;;
10387;SDS011;5240;51.128;4.566;2023-02-26T12:22:25;1.48;;;1.00;;
10387;SDS011;5240;51.128;4.566;2023-02-26T12:25:12;3.33;;;1.30;;
10387;SDS011;5240;51.128;4.566;2023-02-26T12:28:00;4.00;;;1.30;;
10387;SDS011;5240;51.128;4.566;2023-02-26T12:30:44;4.63;;;1.30;;
10387;SDS011;5240;51.128;4.566;2023-02-26T12:33:26;4.38;;;1.25;;
10387;SDS011;5240;51.128;4.566;2023-02-26T12:36:09;2.80;;;1.42;;
10387;SDS011;5240;51.128;4.566;2023-02-26T12:38:52;1.67;;;1.17;;
10387;SDS011;5240;51.128;4.566;2023-02-26T12:44:26;2.35;;;0.70;;
10387;SDS011;5240;51.128;4.566;2023-02-26T12:47:14;1.65;;;1.00;;
10387;SDS011;5240;51.128;4.566;2023-02-26T12:49:55;2.05;;;1.20;;
10387;SDS011;5240;51.128;4.566;2023-02-26T12:52:59;2.85;;;1.02;;
10387;SDS011;5240;51.128;4.566;2023-02-26T12:55:40;2.47;;;1.13;;
10387;SDS011;5240;51.128;4.566;2023-02-26T13:01:21;2.50;;;1.17;;
10387;SDS011;5240;51.128;4.566;2023-02-26T13:04:25;2.03;;;0.85;;
10387;SDS011;5240;51.128;4.566;2023-02-26T13:07:24;1.45;;;0.95;;
10387;SDS011;5240;51.128;4.566;2023-02-26T13:10:17;2.33;;;0.90;;
10387;SDS011;5240;51.128;4.566;2023-02-26T13:12:54;2.53;;;1.10;;
10387;SDS011;5240;51.128;4.566;2023-02-26T13:15:35;2.00;;;1.23;;
10387;SDS011;5240;51.128;4.566;2023-02-26T13:18:21;3.75;;;1.23;;
10387;SDS011;5240;51.128;4.566;2023-02-26T13:20:54;1.58;;;0.90;;
10387;SDS011;5240;51.128;4.566;2023-02-26T13:23:25;2.13;;;1.02;;
10387;SDS011;5240;51.128;4.566;2023-02-26T13:26:00;2.13;;;1.20;;
10387;SDS011;5240;51.128;4.566;2023-02-26T13:28:34;1.67;;;1.10;;
10387;SDS011;5240;51.128;4.566;2023-02-26T13:31:06;2.45;;;1.08;;
10387;SDS011;5240;51.128;4.566;2023-02-26T13:33:38;3.47;;;1.50;;
10387;SDS011;5240;51.128;4.566;2023-02-26T13:36:06;2.67;;;1.30;;
10387;SDS011;5240;51.128;4.566;2023-02-26T13:38:38;2.15;;;1.55;;
10387;SDS011;5240;51.128;4.566;2023-02-26T13:41:15;4.55;;;1.48;;
10387;SDS011;5240;51.128;4.566;2023-02-26T13:43:54;1.65;;;1.20;;
10387;SDS011;5240;51.128;4.566;2023-02-26T13:46:41;3.38;;;1.40;;
10387;SDS011;5240;51.128;4.566;2023-02-26T13:49:19;2.75;;;1.30;;
10387;SDS011;5240;51.128;4.566;2023-02-26T13:51:52;2.22;;;1.20;;
10387;SDS011;5240;51.128;4.566;2023-02-26T13:54:33;2.78;;;1.30;;
10387;SDS011;5240;51.128;4.566;2023-02-26T13:57:14;1.70;;;1.10;;
10387;SDS011;5240;51.128;4.566;2023-02-26T13:59:53;1.33;;;0.95;;
10387;SDS011;5240;51.128;4.566;2023-02-26T14:02:35;3.58;;;1.17;;
10387;SDS011;5240;51.128;4.566;2023-02-26T14:08:20;1.25;;;1.00;;
10387;SDS011;5240;51.128;4.566;2023-02-26T14:10:55;1.77;;;1.23;;
10387;SDS011;5240;51.128;4.566;2023-02-26T14:13:32;1.35;;;1.00;;
10387;SDS011;5240;51.128;4.566;2023-02-26T14:16:03;3.78;;;1.30;;
10387;SDS011;5240;51.128;4.566;2023-02-26T14:18:40;2.33;;;1.15;;
10387;SDS011;5240;51.128;4.566;2023-02-26T14:24:04;2.90;;;1.30;;
10387;SDS011;5240;51.128;4.566;2023-02-26T14:26:42;2.22;;;1.50;;
10387;SDS011;5240;51.128;4.566;2023-02-26T14:29:18;3.47;;;1.70;;
10387;SDS011;5240;51.128;4.566;2023-02-26T14:31:54;1.98;;;1.27;;
10387;SDS011;5240;51.128;4.566;2023-02-26T14:34:32;3.30;;;1.48;;
10387;SDS011;5240;51.128;4.566;2023-02-26T14:37:02;1.90;;;1.20;;
10387;SDS011;5240;51.128;4.566;2023-02-26T14:39:34;2.60;;;1.38;;
10387;SDS011;5240;51.128;4.566;2023-02-26T14:42:04;2.03;;;1.30;;
10387;SDS011;5240;51.128;4.566;2023-02-26T14:44:37;2.40;;;1.38;;
10387;SDS011;5240;51.128;4.566;2023-02-26T14:47:08;3.80;;;1.48;;
10387;SDS011;5240;51.128;4.566;2023-02-26T14:49:37;1.45;;;1.13;;
10387;SDS011;5240;51.128;4.566;2023-02-26T14:52:17;3.92;;;1.30;;
10387;SDS011;5240;51.128;4.566;2023-02-26T14:55:12;2.75;;;1.30;;
10387;SDS011;5240;51.128;4.566;2023-02-26T14:58:15;1.25;;;1.10;;
10387;SDS011;5240;51.128;4.566;2023-02-26T15:00:58;2.55;;;1.30;;
10387;SDS011;5240;51.128;4.566;2023-02-26T15:03:47;2.17;;;1.10;;
10387;SDS011;5240;51.128;4.566;2023-02-26T15:06:57;4.65;;;1.40;;
10387;SDS011;5240;51.128;4.566;2023-02-26T15:09:39;2.92;;;1.40;;
10387;SDS011;5240;51.128;4.566;2023-02-26T15:12:23;1.83;;;1.35;;
10387;SDS011;5240;51.128;4.566;2023-02-26T15:15:03;2.63;;;1.48;;
10387;SDS011;5240;51.128;4.566;2023-02-26T15:17:57;7.80;;;1.50;;
10387;SDS011;5240;51.128;4.566;2023-02-26T15:20:41;3.08;;;1.30;;
10387;SDS011;5240;51.128;4.566;2023-02-26T15:23:25;3.75;;;1.45;;
10387;SDS011;5240;51.128;4.566;2023-02-26T15:26:00;2.58;;;1.27;;
10387;SDS011;5240;51.128;4.566;2023-02-26T15:28:31;1.95;;;0.95;;
10387;SDS011;5240;51.128;4.566;2023-02-26T15:31:02;2.13;;;1.23;;
10387;SDS011;5240;51.128;4.566;2023-02-26T15:33:32;2.95;;;1.25;;
10387;SDS011;5240;51.128;4.566;2023-02-26T15:36:00;3.25;;;1.25;;
10387;SDS011;5240;51.128;4.566;2023-02-26T15:38:38;3.33;;;1.35;;
10387;SDS011;5240;51.128;4.566;2023-02-26T15:41:06;3.83;;;1.33;;
10387;SDS011;5240;51.128;4.566;2023-02-26T15:43:34;3.97;;;1.67;;
10387;SDS011;5240;51.128;4.566;2023-02-26T15:46:02;3.55;;;1.40;;